< < Back
Terminal Aerodrome Forecast


Current Version              Previous Versions:   1  2  3  4  5  6  7  8  9  

Terminal Aerodrome Forecast

463
FTUS44 KMOB 251100
TAFPNS
TAF
KPNS 251126Z 2512/2612 35008KT P6SM SKC
     FM251500 35003KT P6SM SKC=



Latest METAR

544
SAUS70 KWBC 251900 RRO
MTRPNS
METAR KPNS 251853Z 32009KT 10SM CLR 25/09 A3004 RMK AO2 SLP175
T02500089


USA.gov is the U.S. government's official web portal to all federal, state and local government web resources and services.